FW3143 West Gilgo Beach NY US current weather conditions

sailwx.info

Air temperature 5.0° C
Dewpoint -4.3° C

Last reported at 2019-Dec-08 20:00 UTC.
Time now 2019-Dec-08 20:33 UTC

Location: N 40°37' W 073°25'.
View on Google Maps.

See reports from other nearby stations

  
Tides and Currents Weather Stations Pressure Air Temp Water Temp Dewpoint Dewpoint Depression Visibility Wind Speed Wind Dir Waves Ship Positions
date/time (UTC)wind fromknots sea level pressurealtimeterstation pressurevisibilityair tempwater tempwave heightnotes
2019-Dec-08 20:00 5.0
2019-Dec-08 19:45 5.0
2019-Dec-08 19:30 5.0
2019-Dec-08 19:15 5.0
2019-Dec-08 19:00 5.0
2019-Dec-08 18:45 5.0
2019-Dec-08 18:32 5.0
2019-Dec-08 18:17 4.4
2019-Dec-08 18:01 4.4
2019-Dec-08 17:46 4.4
2019-Dec-08 17:31 3.9
2019-Dec-08 17:16 170 7 gusting 12 3.9
2019-Dec-08 17:01 176 6 gusting 9 3.9
2019-Dec-08 16:45 163 6 gusting 10 3.3
2019-Dec-08 16:31 165 6 gusting 9 3.3
2019-Dec-08 16:16 189 7 gusting 12 2.8
2019-Dec-08 16:01 146 6 gusting 8 2.8
2019-Dec-08 15:46 150 4 gusting 10 2.8
2019-Dec-08 15:30 135 5 gusting 7 2.8
2019-Dec-08 15:16 126 6 gusting 9 2.2
2019-Dec-08 15:01 113 4 gusting 8 2.2
2019-Dec-08 14:46 113 5 gusting 9 1.7
2019-Dec-08 14:30 094 2 gusting 7 1.7
2019-Dec-08 14:15 103 3 gusting 6 1.7
2019-Dec-08 14:00 106 2 gusting 5 1.7
2019-Dec-08 13:30 036 0 gusting 2 0.6
2019-Dec-08 13:15 036 0 gusting 2 -1.1
2019-Dec-08 13:02 036 1 gusting 3 -2.2
2019-Dec-08 12:47 034 0 gusting 2 -3.3
2019-Dec-08 12:31 034 2 gusting 3 -4.4
2019-Dec-08 12:17 030 1 gusting 3 -4.4
2019-Dec-08 12:01 028 2 gusting 3 -3.9
2019-Dec-08 11:46 041 1 gusting 4 -3.9
2019-Dec-08 11:30 061 2 gusting 4 -3.9
2019-Dec-08 11:16 069 3 gusting 4 -3.9
2019-Dec-08 11:01 067 2 gusting 4 -3.9
2019-Dec-08 10:46 070 2 gusting 4 -3.9
2019-Dec-08 10:31 059 3 gusting 5 -3.9
2019-Dec-08 10:01 036 2 gusting 4 -3.9
2019-Dec-08 09:47 057 3 gusting 4 -3.9
2019-Dec-08 09:30 067 2 gusting 4 -3.9
2019-Dec-08 09:17 071 2 gusting 4 -3.9
2019-Dec-08 09:00 054 2 gusting 4 -3.9
2019-Dec-08 08:46 053 2 gusting 4 -3.9
2019-Dec-08 08:30 051 2 gusting 3 -3.9
2019-Dec-08 08:17 061 2 gusting 3 -3.9
2019-Dec-08 08:01 005 1 gusting 2 -3.9
2019-Dec-08 07:46 005 1 gusting 3 -3.9
2019-Dec-08 07:30 032 1 gusting 2 -3.9
2019-Dec-08 07:15 046 1 gusting 3 -3.9
2019-Dec-08 07:01 044 2 gusting 4 -3.9
2019-Dec-08 06:46 040 2 gusting 3 -3.9
2019-Dec-08 06:31 034 2 gusting 5 -3.3
2019-Dec-08 06:15 034 2 gusting 3 -3.3
2019-Dec-08 06:00 023 1 gusting 4 -3.3
2019-Dec-08 05:45 029 2 gusting 5 -2.8
2019-Dec-08 05:30 020 3 gusting 4 -2.8
2019-Dec-08 05:15 360 2 gusting 4 -2.2
2019-Dec-08 05:00 355 2 gusting 3 -2.2
2019-Dec-08 04:45 355 2 gusting 4 -2.2
2019-Dec-08 04:30 009 3 gusting 6 -2.2
2019-Dec-08 04:17 005 3 gusting 5 -1.7
2019-Dec-08 04:01 005 2 gusting 4 -1.7
2019-Dec-08 03:46 333 2 gusting 4 -1.7
2019-Dec-08 03:31 355 1 gusting 3 -1.7
2019-Dec-08 03:16 005 2 gusting 4 -1.1
2019-Dec-08 03:01 005 2 gusting 5 -1.1
2019-Dec-08 02:46 355 3 gusting 8 -0.6
2019-Dec-08 02:31 011 5 gusting 10 -0.6
2019-Dec-08 02:16 360 6 gusting 11 -0.6
2019-Dec-08 02:01 348 4 gusting 8 -0.0
2019-Dec-08 01:46 348 5 gusting 8 -0.0
2019-Dec-08 01:31 009 5 gusting 10 -0.0
2019-Dec-08 01:15 009 4 gusting 8 0.6
2019-Dec-08 01:01 360 6 gusting 10 0.6
2019-Dec-08 00:46 360 5 gusting 10 0.6
2019-Dec-08 00:30 325 6 gusting 11 1.1
2019-Dec-08 00:15 348 6 gusting 11 1.1
2019-Dec-08 00:00 327 5 gusting 10 0.6
2019-Dec-07 23:45 360 5 gusting 9 1.1
2019-Dec-07 23:30 355 5 gusting 10 1.1
2019-Dec-07 23:15 009 4 gusting 9 1.1
2019-Dec-07 23:01 005 6 gusting 13 1.1
2019-Dec-07 22:45 342 8 gusting 12 1.1
2019-Dec-07 22:30 360 5 gusting 9 1.7
2019-Dec-07 22:15 351 6 gusting 9 1.7
2019-Dec-07 22:00 005 4 gusting 8 2.2
2019-Dec-07 21:45 015 5 gusting 9 2.2
2019-Dec-07 21:30 005 4 gusting 7 2.8
2019-Dec-07 21:15 346 4 gusting 11 2.8
2019-Dec-07 21:00 015 6 gusting 10 3.3
2019-Dec-07 20:45 347 4 gusting 10 3.9
2019-Dec-07 20:30 005 7 gusting 13 3.9
2019-Dec-07 20:16 009 7 gusting 13 3.9
2019-Dec-07 20:01 347 8 gusting 12 4.4
2019-Dec-07 19:46 346 8 gusting 13 4.4
2019-Dec-07 19:31 345 7 gusting 15 4.4
2019-Dec-07 19:16 355 8 gusting 14 5.0
2019-Dec-07 19:02 355 9 gusting 15 4.4
2019-Dec-07 18:46 321 8 gusting 14 4.4
2019-Dec-07 18:31 333 6 gusting 12 5.0
2019-Dec-07 18:16 311 6 gusting 15 4.4
2019-Dec-07 18:01 292 7 gusting 13 4.4
2019-Dec-07 17:46 323 6 gusting 14 5.0
2019-Dec-07 17:31 005 7 gusting 15 5.6
2019-Dec-07 17:15 340 8 gusting 12 5.0
2019-Dec-07 17:01 005 6 gusting 13 5.0
2019-Dec-07 16:46 342 7 gusting 12 3.9
2019-Dec-07 16:30 016 5 gusting 11 3.9
2019-Dec-07 16:16 005 6 gusting 13 3.9
2019-Dec-07 16:00 351 8 gusting 13 3.3
2019-Dec-07 15:45 331 7 gusting 12 3.3
2019-Dec-07 15:30 010 8 gusting 14 3.3
2019-Dec-07 15:00 335 7 gusting 15 2.8
2019-Dec-07 14:45 331 8 gusting 15 2.2
2019-Dec-07 14:30 327 8 gusting 16 1.7
2019-Dec-07 14:15 348 9 gusting 13 1.7
2019-Dec-07 14:00 350 8 gusting 14 1.7
2019-Dec-07 13:45 319 7 gusting 14 1.7
2019-Dec-07 13:30 355 7 gusting 15 1.7
2019-Dec-07 13:17 329 9 gusting 17 1.7
2019-Dec-07 13:01 333 6 gusting 14 1.7
2019-Dec-07 12:31 351 10 gusting 16 1.1
2019-Dec-07 12:16 355 7 gusting 13 1.1
2019-Dec-07 12:01 009 5 gusting 10 0.6
2019-Dec-07 11:31 355 3 gusting 6 0.6
2019-Dec-07 11:15 350 4 gusting 7 0.6
2019-Dec-07 11:00 343 3 gusting 8 0.6
2019-Dec-07 10:45 355 2 gusting 6 1.1
2019-Dec-07 10:31 346 3 gusting 10 1.1
2019-Dec-07 10:15 336 7 gusting 13 1.1
2019-Dec-07 10:00 355 9 gusting 16 1.1
2019-Dec-07 09:45 009 8 gusting 15 1.1
2019-Dec-07 09:30 017 11 gusting 18 1.1
2019-Dec-07 09:15 342 11 gusting 15 1.1
2019-Dec-07 09:00 345 8 gusting 13 1.7
2019-Dec-07 08:45 346 7 gusting 13 1.7
2019-Dec-07 08:30 345 8 gusting 17 1.7
2019-Dec-07 08:16 349 8 gusting 15 1.7
2019-Dec-07 08:01 346 8 gusting 15 1.7
2019-Dec-07 07:46 339 3 gusting 7 1.7
2019-Dec-07 07:32 341 4 gusting 8 1.7
2019-Dec-07 07:17 334 4 gusting 7 2.2
2019-Dec-07 07:01 346 4 gusting 8 2.2
2019-Dec-07 06:46 342 4 gusting 9 2.8
2019-Dec-07 06:31 305 6 gusting 14 2.8
2019-Dec-07 06:16 326 6 gusting 13 2.8
2019-Dec-07 06:01 342 9 gusting 16 3.3
2019-Dec-07 05:46 355 8 gusting 13 3.3
2019-Dec-07 05:31 329 8 gusting 15 3.3
2019-Dec-07 05:15 005 10 gusting 18 3.9
2019-Dec-07 05:00 355 10 gusting 16 3.9
2019-Dec-07 04:46 339 9 gusting 15 3.9
2019-Dec-07 04:30 350 11 gusting 18 4.4
2019-Dec-07 04:16 028 10 gusting 18 4.4
2019-Dec-07 04:00 313 8 gusting 18 5.0
2019-Dec-07 03:46 360 8 gusting 19 5.0
2019-Dec-07 03:31 324 11 gusting 19 5.6
2019-Dec-07 03:15 323 12 gusting 20 5.6
2019-Dec-07 03:01 304 10 gusting 19 6.1
2019-Dec-07 02:45 338 10 gusting 19 6.1
2019-Dec-07 02:30 338 13 gusting 24 6.7
2019-Dec-07 02:15 338 13 gusting 23 7.2
2019-Dec-07 02:00 330 10 gusting 25 7.8
2019-Dec-07 01:30 321 13 gusting 22 8.9
2019-Dec-07 01:15 340 16 gusting 25 8.9
2019-Dec-07 01:00 311 10 gusting 15 8.9
2019-Dec-07 00:15 268 10 gusting 16 8.9
2019-Dec-07 00:00 282 8 gusting 14 9.4
2019-Dec-06 23:45 295 9 gusting 19 9.4
2019-Dec-06 23:30 280 12 gusting 19 9.4
2019-Dec-06 23:15 277 9 gusting 17 9.4
2019-Dec-06 23:00 242 13 gusting 19 9.4
2019-Dec-06 22:47 266 13 gusting 18 8.9
2019-Dec-06 22:45 272 13 gusting 18 8.9
2019-Dec-06 22:31 248 13 gusting 19 8.9
2019-Dec-06 22:01 241 11 gusting 17 8.9
2019-Dec-06 21:47 239 12 gusting 17 8.3
2019-Dec-06 21:31 248 12 gusting 19 8.9
2019-Dec-06 21:16 236 13 gusting 20 8.9
2019-Dec-06 21:02 235 14 gusting 23 8.9
2019-Dec-06 20:47 240 19 gusting 28 8.9
2019-Dec-06 20:31 229 22 gusting 27 8.9
2019-Dec-06 20:17 227 24 gusting 30 8.9
2019-Dec-06 20:01 218 24 gusting 30 8.9